createdAt,value
2019-04-14T00:00:51.854Z,99763.25
2019-04-14T00:03:21.724Z,99747.95
2019-04-14T00:05:51.724Z,99747.95
2019-04-14T00:08:19.898Z,99762.91
2019-04-14T00:10:48.636Z,99758.75
2019-04-14T00:13:17.480Z,99761.17
2019-04-14T00:15:48.780Z,99764.02
2019-04-14T00:18:16.453Z,99764.02
2019-04-14T00:20:44.845Z,99753.16
2019-04-14T00:23:13.286Z,99753.16
2019-04-14T00:25:41.528Z,99764.99
2019-04-14T00:28:09.755Z,99755.81
2019-04-14T00:30:38.297Z,99751.50
2019-04-14T00:33:10.821Z,99751.50
2019-04-14T00:35:40.703Z,99759.13
2019-04-14T00:38:17.445Z,99768.50
2019-04-14T00:40:47.698Z,99768.50
2019-04-14T00:43:24.465Z,99770.50
2019-04-14T00:45:57.677Z,99769.15
2019-04-14T00:48:25.965Z,99758.70
2019-04-14T00:50:54.153Z,99767.56
2019-04-14T00:53:22.912Z,99756.11
2019-04-14T00:55:51.174Z,99756.11
2019-04-14T00:58:19.589Z,99765.41
2019-04-14T01:00:48.052Z,99763.36
2019-04-14T01:03:17.532Z,99755.34
2019-04-14T01:05:46.013Z,99755.34
2019-04-14T01:08:14.226Z,99757.38
2019-04-14T01:10:43.279Z,99755.11
2019-04-14T01:13:12.724Z,99761.47
2019-04-14T01:15:51.298Z,99753.50
2019-04-14T01:18:12.553Z,99755.39
2019-04-14T01:20:41.011Z,99747.76
2019-04-14T01:23:10.560Z,99747.76
2019-04-14T01:25:38.994Z,99756.94
2019-04-14T01:28:08.871Z,99749.53
2019-04-14T01:30:37.377Z,99751.30
2019-04-14T01:33:05.839Z,99751.30
2019-04-14T01:35:34.319Z,99741.78
2019-04-14T01:38:03.694Z,99743.94
2019-04-14T01:40:32.022Z,99729.95
2019-04-14T01:43:01.592Z,99717.44
2019-04-14T01:45:29.866Z,99746.30
2019-04-14T01:47:58.101Z,99746.30
2019-04-14T01:50:27.968Z,99749.23
2019-04-14T01:53:03.908Z,99735.39
2019-04-14T01:55:37.352Z,99735.39
2019-04-14T01:58:07.862Z,99753.16
2019-04-14T02:00:46.901Z,99753.16
2019-04-14T02:03:15.129Z,99762.41
2019-04-14T02:05:43.359Z,99762.41
2019-04-14T02:08:11.599Z,99760.48
2019-04-14T02:10:39.821Z,99760.48
2019-04-14T02:13:09.311Z,99745.53
2019-04-14T02:15:37.484Z,99742.98
2019-04-14T02:18:05.795Z,99758.47
2019-04-14T02:20:34.000Z,99758.47
2019-04-14T02:23:02.193Z,99757.05
2019-04-14T02:25:31.671Z,99759.43
2019-04-14T02:28:00.153Z,99759.43
2019-04-14T02:30:36.602Z,99752.95
2019-04-14T02:33:32.183Z,99758.16
2019-04-14T02:36:09.902Z,99737.42
2019-04-14T02:38:34.091Z,99734.49
2019-04-14T02:41:02.445Z,99734.49
2019-04-14T02:43:33.352Z,99757.27
2019-04-14T02:48:44.225Z,99760.43
2019-04-14T02:50:56.169Z,99761.31
2019-04-14T02:53:27.147Z,99755.22
2019-04-14T02:55:59.800Z,99755.22
2019-04-14T02:58:30.534Z,99768.72
2019-04-14T03:00:58.316Z,99761.09
2019-04-14T03:06:10.388Z,99730.72
2019-04-14T03:08:26.048Z,99761.70
2019-04-14T03:10:55.712Z,99761.70
2019-04-14T03:21:19.994Z,99761.70
2019-04-14T03:24:06.590Z,99743.98
2019-04-14T03:26:38.236Z,99740.47
2019-04-14T03:29:05.405Z,99741.52
2019-04-14T03:34:23.540Z,99736.70
2019-04-14T03:39:06.108Z,99764.72
2019-04-14T03:41:41.228Z,99764.72
2019-04-14T03:44:11.773Z,99762.98
2019-04-14T03:46:45.312Z,99738.67
2019-04-14T03:51:44.578Z,99739.75
2019-04-14T03:54:03.431Z,99753.78
2019-04-14T03:56:18.031Z,99753.78
2019-04-14T03:58:46.549Z,99756.70
2019-04-14T04:01:15.113Z,99756.70
2019-04-14T04:03:43.605Z,99737.47
2019-04-14T04:06:11.847Z,99739.05
2019-04-14T04:08:40.000Z,99753.12
2019-04-14T04:11:08.468Z,99753.12
2019-04-14T04:13:36.857Z,99750.92
2019-04-14T04:16:15.903Z,99750.92
2019-04-14T04:18:55.761Z,99753.46
2019-04-14T04:21:22.722Z,99764.80
2019-04-14T04:23:53.287Z,99746.03
2019-04-14T04:26:32.223Z,99762.59
2019-04-14T04:29:04.889Z,99765.41
2019-04-14T04:31:37.645Z,99761.91
2019-04-14T04:34:16.293Z,99766.95
2019-04-14T04:37:03.867Z,99775.20
2019-04-14T04:39:38.054Z,99782.45
2019-04-14T04:42:07.007Z,99779.29
2019-04-14T04:44:35.636Z,99797.87
2019-04-14T04:47:03.833Z,99797.87
2019-04-14T04:49:32.906Z,99798.76
2019-04-14T04:52:02.255Z,99796.83
2019-04-14T04:54:30.488Z,99799.25
2019-04-14T04:56:58.710Z,99789.55
2019-04-14T04:59:27.785Z,99789.55
2019-04-14T05:01:56.048Z,99804.11
2019-04-14T05:04:24.406Z,99804.11
2019-04-14T05:07:01.929Z,99808.93
2019-04-14T05:09:38.767Z,99812.75
2019-04-14T05:12:09.151Z,99797.29
2019-04-14T05:14:43.376Z,99797.29
2019-04-14T05:17:12.610Z,99816.18
2019-04-14T05:19:42.017Z,99816.18
2019-04-14T05:22:11.315Z,99819.42
2019-04-14T05:24:39.736Z,99819.42
2019-04-14T05:27:07.932Z,99829.95
2019-04-14T05:29:36.543Z,99831.45
2019-04-14T05:32:04.834Z,99825.32
2019-04-14T05:34:33.066Z,99833.57
2019-04-14T05:37:01.296Z,99830.34
2019-04-14T05:39:30.781Z,99831.02
2019-04-14T05:42:07.531Z,99831.02
2019-04-14T05:44:29.670Z,99821.95
2019-04-14T05:46:57.955Z,99821.95
2019-04-14T05:49:34.831Z,99845.09
2019-04-14T05:51:56.620Z,99843.34
2019-04-14T05:54:25.246Z,99845.84
2019-04-14T05:56:53.752Z,99848.63
2019-04-14T05:59:22.025Z,99851.09
2019-04-14T06:01:51.081Z,99851.09
2019-04-14T06:04:20.038Z,99855.41
2019-04-14T06:06:48.212Z,99860.61
2019-04-14T06:09:16.666Z,99864.20
2019-04-14T06:11:44.905Z,99866.59
2019-04-14T06:14:13.130Z,99862.39
2019-04-14T06:16:41.362Z,99866.82
2019-04-14T06:19:09.586Z,99872.03
2019-04-14T06:21:38.047Z,99866.55
2019-04-14T06:24:06.276Z,99871.09
2019-04-14T06:26:34.508Z,99866.69
2019-04-14T06:29:02.732Z,99871.34
2019-04-14T06:31:48.638Z,99869.36
2019-04-14T06:34:18.719Z,99865.95
2019-04-14T06:37:03.615Z,99873.26
2019-04-14T06:39:33.511Z,99873.39
2019-04-14T06:42:01.714Z,99869.42
2019-04-14T06:44:29.936Z,99867.53
2019-04-14T06:46:58.171Z,99867.53
2019-04-14T06:49:26.400Z,99866.41
2019-04-14T06:51:54.854Z,99868.97
2019-04-14T06:54:23.302Z,99869.80
2019-04-14T06:56:51.542Z,99869.83
2019-04-14T06:59:19.771Z,99870.13
2019-04-14T07:01:48.004Z,99872.50
2019-04-14T07:04:16.448Z,99876.64
2019-04-14T07:06:44.692Z,99871.05
2019-04-14T07:09:13.137Z,99870.38
2019-04-14T07:11:41.591Z,99877.07
2019-04-14T07:14:09.813Z,99875.61
2019-04-14T07:16:38.047Z,99877.88
2019-04-14T07:19:06.495Z,99869.86
2019-04-14T07:21:34.948Z,99873.58
2019-04-14T07:24:03.173Z,99871.63
2019-04-14T07:26:31.406Z,99873.31
2019-04-14T07:28:59.634Z,99874.91
2019-04-14T07:31:45.834Z,99876.27
2019-04-14T07:34:24.222Z,99873.63
2019-04-14T07:36:56.988Z,99870.41
2019-04-14T07:39:41.887Z,99872.47
2019-04-14T07:42:11.968Z,99877.28
2019-04-14T07:44:57.807Z,99874.83
2019-04-14T07:47:27.896Z,99866.38
2019-04-14T07:50:14.614Z,99871.39
2019-04-14T07:52:54.380Z,99874.73
2019-04-14T07:55:36.410Z,99879.05
2019-04-14T07:58:11.692Z,99879.16
2019-04-14T08:00:41.601Z,99883.58
2019-04-14T08:03:11.467Z,99884.45
2019-04-14T08:05:41.471Z,99875.21
2019-04-14T08:08:09.704Z,99869.58
2019-04-14T08:10:37.936Z,99876.23
2019-04-14T08:13:06.379Z,99873.27
2019-04-14T08:15:34.829Z,99881.93
2019-04-14T08:18:03.292Z,99876.91
2019-04-14T08:20:31.749Z,99878.06
2019-04-14T08:22:59.969Z,99874.89
2019-04-14T08:25:28.422Z,99885.67
2019-04-14T08:27:56.687Z,99877.26
2019-04-14T08:30:25.147Z,99878.51
2019-04-14T08:32:53.378Z,99886.72
2019-04-14T08:35:21.826Z,99890.05
2019-04-14T08:37:50.276Z,99880.55
2019-04-14T08:40:18.581Z,99886.55
2019-04-14T08:42:51.130Z,99875.70
2019-04-14T08:45:32.742Z,99880.52
2019-04-14T08:48:05.648Z,99887.05
2019-04-14T08:50:39.657Z,99890.80
2019-04-14T08:53:22.193Z,99890.48
2019-04-14T08:56:09.902Z,99885.86
2019-04-14T08:58:39.778Z,99886.87
2019-04-14T09:01:09.640Z,99889.38
2019-04-14T09:03:45.294Z,99882.97
2019-04-14T09:06:15.380Z,99883.03
2019-04-14T09:09:00.286Z,99880.31
2019-04-14T09:11:32.804Z,99880.80
2019-04-14T09:14:01.269Z,99879.16
2019-04-14T09:16:29.710Z,99878.39
2019-04-14T09:19:07.679Z,99877.57
2019-04-14T09:21:27.885Z,99872.47
2019-04-14T09:23:56.968Z,99879.91
2019-04-14T09:26:25.259Z,99876.56
2019-04-14T09:28:53.498Z,99878.78
2019-04-14T09:31:21.718Z,99881.58
2019-04-14T09:33:49.939Z,99879.23
2019-04-14T09:36:18.170Z,99881.23
2019-04-14T09:38:46.395Z,99874.23
2019-04-14T09:41:14.630Z,99880.52
2019-04-14T09:43:42.858Z,99875.81
2019-04-14T09:46:11.244Z,99884.41
2019-04-14T09:48:39.690Z,99888.20
2019-04-14T09:51:07.922Z,99886.89
2019-04-14T09:53:36.441Z,99877.69
2019-04-14T09:56:04.905Z,99880.16
2019-04-14T09:58:33.364Z,99888.27
2019-04-14T10:01:01.818Z,99884.97
2019-04-14T10:03:30.265Z,99869.40
2019-04-14T10:05:58.646Z,99875.98
2019-04-14T10:08:26.906Z,99873.83
2019-04-14T10:10:55.376Z,99872.43
2019-04-14T10:13:23.882Z,99881.58
2019-04-14T10:15:52.119Z,99881.75
2019-04-14T10:18:20.571Z,99882.12
2019-04-14T10:20:49.031Z,99881.48
2019-04-14T10:23:17.258Z,99875.33
2019-04-14T10:25:45.515Z,99879.06
2019-04-14T10:28:13.954Z,99876.92
2019-04-14T10:30:42.424Z,99871.36
2019-04-14T10:33:10.671Z,99871.36
2019-04-14T10:35:38.889Z,99868.89
2019-04-14T10:38:07.122Z,99867.32
2019-04-14T10:40:35.342Z,99881.30
2019-04-14T10:43:03.580Z,99886.21
2019-04-14T10:45:31.799Z,99875.93
2019-04-14T10:48:00.030Z,99870.70
2019-04-14T10:50:31.169Z,99879.66
2019-04-14T10:52:58.215Z,99880.28
2019-04-14T10:55:26.438Z,99875.06
2019-04-14T10:57:54.675Z,99881.08
2019-04-14T11:00:22.903Z,99871.41
2019-04-14T11:02:51.142Z,99878.51
2019-04-14T11:05:19.594Z,99874.47
2019-04-14T11:07:47.839Z,99866.93
2019-04-14T11:10:16.134Z,99861.58
2019-04-14T11:12:44.366Z,99871.98
2019-04-14T11:15:15.421Z,99861.77
2019-04-14T11:17:42.852Z,99866.55
2019-04-14T11:20:11.142Z,99866.55
2019-04-14T11:22:39.601Z,99860.93
2019-04-14T11:25:08.501Z,99861.57
2019-04-14T11:27:36.736Z,99859.39
2019-04-14T11:30:08.212Z,99868.56
2019-04-14T11:32:43.844Z,99877.70
2019-04-14T11:35:16.351Z,99875.12
2019-04-14T11:37:48.433Z,99865.58
2019-04-14T11:40:18.293Z,99862.11
2019-04-14T11:42:52.525Z,99875.27
2019-04-14T11:45:16.714Z,99876.97
2019-04-14T11:47:44.952Z,99877.02
2019-04-14T11:50:13.245Z,99877.03
2019-04-14T11:52:41.479Z,99884.90
2019-04-14T11:55:09.786Z,99880.77
2019-04-14T11:57:38.262Z,99871.67
2019-04-14T12:00:25.848Z,99868.52
2019-04-14T12:03:11.910Z,99872.02
2019-04-14T12:05:57.547Z,99875.69
2019-04-14T12:08:27.431Z,99875.84
2019-04-14T12:10:55.664Z,99872.08
2019-04-14T12:13:23.903Z,99865.42
2019-04-14T12:15:52.129Z,99880.80
2019-04-14T12:18:20.354Z,99881.52
2019-04-14T12:20:48.592Z,99885.33
2019-04-14T12:23:17.043Z,99892.31
2019-04-14T12:25:45.510Z,99901.56
2019-04-14T12:28:13.733Z,99889.41
2019-04-14T12:30:42.215Z,99894.44
2019-04-14T12:33:10.441Z,99896.00
2019-04-14T12:35:38.680Z,99889.16
2019-04-14T12:38:07.140Z,99895.57
2019-04-14T12:40:35.377Z,99899.06
2019-04-14T12:43:05.466Z,99885.77
2019-04-14T12:45:38.028Z,99900.14
2019-04-14T12:48:08.111Z,99903.54
2019-04-14T12:50:38.207Z,99899.43
2019-04-14T12:53:06.434Z,99893.98
2019-04-14T12:55:34.837Z,99893.66
2019-04-14T12:58:04.705Z,99887.88
2019-04-14T13:00:37.484Z,99899.50
2019-04-14T13:03:05.710Z,99903.50
2019-04-14T13:05:33.946Z,99886.59
2019-04-14T13:08:02.402Z,99895.07
2019-04-14T13:10:30.635Z,99897.12
2019-04-14T13:12:58.858Z,99899.70
2019-04-14T13:15:27.117Z,99894.37
2019-04-14T13:17:55.557Z,99895.83
2019-04-14T13:20:24.015Z,99898.25
2019-04-14T13:22:52.249Z,99899.00
2019-04-14T13:25:20.471Z,99894.32
2019-04-14T13:27:50.051Z,99907.52
2019-04-14T13:30:19.909Z,99908.55
2019-04-14T13:32:48.142Z,99908.72
2019-04-14T13:35:16.371Z,99904.33
2019-04-14T13:37:44.860Z,99900.03
2019-04-14T13:40:13.593Z,99904.80
2019-04-14T13:42:41.835Z,99893.56
2019-04-14T13:45:10.061Z,99903.40
2019-04-14T13:47:38.303Z,99901.93
2019-04-14T13:50:07.100Z,99906.62
2019-04-14T13:52:46.086Z,99901.20
2019-04-14T13:55:06.917Z,99910.64
2019-04-14T13:57:35.379Z,99901.66
2019-04-14T14:00:05.919Z,99896.69
2019-04-14T14:02:34.149Z,99890.72
2019-04-14T14:05:02.379Z,99906.47
2019-04-14T14:07:30.618Z,99897.67
2019-04-14T14:09:59.071Z,99899.57
2019-04-14T14:12:28.951Z,99903.27
2019-04-14T14:15:02.499Z,99903.33
2019-04-14T14:17:44.069Z,99901.60
2019-04-14T14:20:16.991Z,99899.91
2019-04-14T14:22:59.095Z,99895.13
2019-04-14T14:25:23.843Z,99889.83
2019-04-14T14:27:52.315Z,99898.01
2019-04-14T14:30:20.926Z,99890.66
2019-04-14T14:32:49.369Z,99893.20
2019-04-14T14:35:17.821Z,99898.89
2019-04-14T14:37:46.065Z,99900.34
2019-04-14T14:40:14.463Z,99904.77
2019-04-14T14:42:42.995Z,99912.14
2019-04-14T14:45:13.422Z,99905.73
2019-04-14T14:47:43.317Z,99905.17
2019-04-14T14:50:13.187Z,99913.41
2019-04-14T14:52:41.613Z,99902.44
2019-04-14T14:55:09.834Z,99910.16
2019-04-14T14:57:38.057Z,99904.95
2019-04-14T15:00:10.049Z,99909.19
2019-04-14T15:02:38.290Z,99905.73
2019-04-14T15:05:06.997Z,99903.45
2019-04-14T15:07:35.232Z,99910.94
2019-04-14T15:10:04.823Z,99909.50
2019-04-14T15:12:33.243Z,99909.36
2019-04-14T15:15:01.705Z,99912.34
2019-04-14T15:17:30.173Z,99914.48
2019-04-14T15:19:58.642Z,99915.86
2019-04-14T15:22:26.871Z,99925.55
2019-04-14T15:24:55.110Z,99924.95
2019-04-14T15:27:23.632Z,99926.48
2019-04-14T15:29:52.124Z,99927.06
2019-04-14T15:32:20.336Z,99928.51
2019-04-14T15:34:48.558Z,99938.00
2019-04-14T15:37:16.788Z,99937.44
2019-04-14T15:39:45.023Z,99938.95
2019-04-14T15:42:13.251Z,99942.41
2019-04-14T15:44:41.493Z,99943.77
2019-04-14T15:47:09.724Z,99933.57
2019-04-14T15:49:37.958Z,99949.66
2019-04-14T15:52:06.409Z,99958.05
2019-04-14T15:54:34.638Z,99951.34
2019-04-14T15:57:20.517Z,99966.16
2019-04-14T15:59:50.614Z,99961.08
2019-04-14T16:02:21.156Z,99963.34
2019-04-14T16:04:51.019Z,99966.24
2019-04-14T16:07:32.909Z,99980.91
2019-04-14T16:10:18.706Z,99970.66
2019-04-14T16:12:54.864Z,99973.04
2019-04-14T16:15:27.495Z,99983.94
2019-04-14T16:18:00.474Z,99978.48
2019-04-14T16:20:30.344Z,99983.33
2019-04-14T16:22:58.789Z,99986.45
2019-04-14T16:25:40.174Z,99987.17
2019-04-14T16:28:19.041Z,99996.31
2019-04-14T16:31:05.083Z,99985.65
2019-04-14T16:33:35.170Z,99990.31
2019-04-14T16:36:03.621Z,99990.06
2019-04-14T16:38:31.846Z,99986.27
2019-04-14T16:41:00.083Z,99996.47
2019-04-14T16:43:28.528Z,99993.06
2019-04-14T16:45:56.780Z,100001.83
2019-04-14T16:48:25.039Z,100000.72
2019-04-14T16:50:53.232Z,100004.53
2019-04-14T16:53:25.801Z,100001.91
2019-04-14T16:56:11.869Z,100017.06
2019-04-14T16:58:41.947Z,100011.61
2019-04-14T17:01:20.651Z,100016.84
2019-04-14T17:03:49.104Z,100022.36
2019-04-14T17:06:17.330Z,100031.87
2019-04-14T17:08:45.572Z,100028.23
2019-04-14T17:11:13.813Z,100032.25
2019-04-14T17:13:43.902Z,100032.77
2019-04-14T17:16:22.638Z,100036.42
2019-04-14T17:18:58.643Z,100045.63
2019-04-14T17:21:37.333Z,100047.80
2019-04-14T17:24:19.060Z,100051.66
2019-04-14T17:26:48.934Z,100056.56
2019-04-14T17:29:30.595Z,100055.59
2019-04-14T17:32:03.169Z,100059.02
2019-04-14T17:34:33.029Z,100067.99
2019-04-14T17:37:05.819Z,100063.66
2019-04-14T17:39:47.397Z,100060.99
2019-04-14T17:42:22.936Z,100068.29
2019-04-14T17:44:52.812Z,100068.69
2019-04-14T17:47:39.099Z,100071.89
2019-04-14T17:50:39.780Z,100071.41
2019-04-14T17:53:01.552Z,100082.55
2019-04-14T17:55:49.704Z,100085.60
2019-04-14T17:58:14.186Z,100091.83
2019-04-14T18:00:44.278Z,100093.31
2019-04-14T18:03:32.367Z,100096.28
2019-04-14T18:06:13.927Z,100099.30
2019-04-14T18:08:59.796Z,100106.91
2019-04-14T18:11:45.236Z,100105.83
2019-04-14T18:14:15.347Z,100110.21
2019-04-14T18:17:03.295Z,100113.18
2019-04-14T18:19:33.169Z,100118.61
2019-04-14T18:22:01.685Z,100119.79
2019-04-14T18:24:41.652Z,100126.92
2019-04-14T18:27:00.099Z,100122.79
2019-04-14T18:29:36.133Z,100125.35
2019-04-14T18:32:12.401Z,100129.00
2019-04-14T18:34:58.127Z,100131.96
2019-04-14T18:37:30.445Z,100132.55
2019-04-14T18:40:15.375Z,100128.51
2019-04-14T18:42:45.548Z,100138.56
2019-04-14T18:45:25.602Z,100135.91
2019-04-14T18:47:55.719Z,100145.50
2019-04-14T18:50:40.642Z,100142.34
2019-04-14T18:53:22.927Z,100146.58
2019-04-14T18:55:52.822Z,100148.06
2019-04-14T18:58:37.721Z,100154.66
2019-04-14T19:01:10.558Z,100160.27
2019-04-14T19:03:38.910Z,100150.42
2019-04-14T19:06:07.099Z,100160.57
2019-04-14T19:08:35.408Z,100164.54
2019-04-14T19:11:17.015Z,100163.27
2019-04-14T19:13:46.843Z,100164.34
2019-04-14T19:16:17.018Z,100165.13
2019-04-14T19:18:46.955Z,100162.76
2019-04-14T19:21:17.053Z,100166.23
2019-04-14T19:23:46.705Z,100171.16
2019-04-14T19:26:15.020Z,100170.56
2019-04-14T19:28:43.254Z,100170.65
2019-04-14T19:31:11.681Z,100172.71
2019-04-14T19:33:40.178Z,100168.68
2019-04-14T19:36:08.415Z,100170.95
2019-04-14T19:38:36.642Z,100167.92
2019-04-14T19:41:05.425Z,100149.97
2019-04-14T19:43:33.661Z,100170.75
2019-04-14T19:46:02.190Z,100173.51
2019-04-14T19:48:30.646Z,100175.68
2019-04-14T19:50:59.109Z,100176.06
2019-04-14T19:53:27.561Z,100175.00
2019-04-14T19:55:56.021Z,100184.36
2019-04-14T19:58:24.250Z,100186.81
2019-04-14T20:00:52.721Z,100180.89
2019-04-14T20:03:21.167Z,100183.95
2019-04-14T20:05:49.407Z,100187.29
2019-04-14T20:08:17.869Z,100188.58
2019-04-14T20:10:46.108Z,100189.15
2019-04-14T20:13:14.335Z,100192.10
2019-04-14T20:15:56.118Z,100193.88
2019-04-14T20:18:25.987Z,100197.73
2019-04-14T20:20:59.055Z,100206.30
2019-04-14T20:23:37.690Z,100208.46
2019-04-14T20:26:16.368Z,100208.07
2019-04-14T20:28:46.225Z,100209.82
2019-04-14T20:31:31.967Z,100214.95
2019-04-14T20:34:00.508Z,100220.45
2019-04-14T20:36:28.815Z,100225.08
2019-04-14T20:38:57.069Z,100221.91
2019-04-14T20:41:25.295Z,100227.14
2019-04-14T20:43:53.538Z,100232.47
2019-04-14T20:46:22.083Z,100226.64
2019-04-14T20:48:50.757Z,100232.94
2019-04-14T20:51:18.989Z,100235.12
2019-04-14T20:53:47.517Z,100233.95
2019-04-14T20:56:15.746Z,100229.70
2019-04-14T20:58:43.982Z,100236.20
2019-04-14T21:01:13.178Z,100235.39
2019-04-14T21:03:48.519Z,100243.38
2019-04-14T21:06:26.980Z,100245.02
2019-04-14T21:08:56.850Z,100247.61
2019-04-14T21:11:26.719Z,100246.83
2019-04-14T21:14:02.237Z,100248.50
2019-04-14T21:16:41.253Z,100243.80
2019-04-14T21:19:22.940Z,100249.39
2019-04-14T21:21:52.802Z,100242.88
2019-04-14T21:24:34.427Z,100256.47
2019-04-14T21:27:04.381Z,100263.86
2019-04-14T21:29:50.420Z,100261.09
2019-04-14T21:32:20.285Z,100265.24
2019-04-14T21:34:52.931Z,100262.97
2019-04-14T21:37:34.471Z,100267.09
2019-04-14T21:40:22.912Z,100261.55
2019-04-14T21:42:51.209Z,100257.89
2019-04-14T21:45:19.442Z,100260.77
2019-04-14T21:47:47.894Z,100264.89
2019-04-14T21:50:16.300Z,100268.13
2019-04-14T21:52:49.320Z,100270.47
2019-04-14T21:55:16.139Z,100271.74
2019-04-14T21:57:49.026Z,100274.30
2019-04-14T22:00:35.418Z,100275.80
2019-04-14T22:03:14.379Z,100281.30
2019-04-14T22:05:46.916Z,100279.63
2019-04-14T22:08:17.073Z,100279.03
2019-04-14T22:10:55.495Z,100278.42
2019-04-14T22:13:24.390Z,100277.31
2019-04-14T22:15:53.300Z,100277.03
2019-04-14T22:18:21.813Z,100270.30
2019-04-14T22:20:50.052Z,100269.92
2019-04-14T22:23:18.581Z,100274.14
2019-04-14T22:25:46.846Z,100277.20
2019-04-14T22:28:15.129Z,100277.48
2019-04-14T22:30:43.438Z,100277.48
2019-04-14T22:33:11.894Z,100284.66
2019-04-14T22:35:40.531Z,100273.53
2019-04-14T22:38:08.751Z,100269.31
2019-04-14T22:40:37.279Z,100259.97
2019-04-14T22:43:05.502Z,100253.69
2019-04-14T22:45:33.882Z,100254.96
2019-04-14T22:48:02.108Z,100253.95
2019-04-14T22:50:30.346Z,100256.41
2019-04-14T22:52:58.569Z,100260.36
2019-04-14T22:55:26.905Z,100260.47
2019-04-14T22:57:55.133Z,100258.41
2019-04-14T23:00:41.823Z,100256.41
2019-04-14T23:03:11.684Z,100255.03
2019-04-14T23:05:49.962Z,100250.91
2019-04-14T23:08:22.786Z,100249.52
2019-04-14T23:11:01.331Z,100252.85
2019-04-14T23:13:37.103Z,100250.19
2019-04-14T23:16:07.269Z,100257.47
2019-04-14T23:18:39.864Z,100255.97
2019-04-14T23:21:15.988Z,100257.14
2019-04-14T23:23:51.696Z,100256.02
2019-04-14T23:26:19.938Z,100258.52
2019-04-14T23:28:48.156Z,100258.02
2019-04-14T23:31:16.384Z,100257.23
2019-04-14T23:33:44.675Z,100249.63
2019-04-14T23:36:13.077Z,100249.23
2019-04-14T23:38:41.319Z,100252.63
2019-04-14T23:41:09.538Z,100249.78
2019-04-14T23:43:38.002Z,100252.28
2019-04-14T23:46:06.230Z,100244.56
2019-04-14T23:48:34.849Z,100252.98
2019-04-14T23:51:03.085Z,100251.04
2019-04-14T23:53:31.327Z,100252.88
2019-04-14T23:55:59.889Z,100253.97
2019-04-14T23:58:28.121Z,100252.39
